sensor_id;sensor_type;location;lat;lon;timestamp;temperature;humidity
41533;DHT22;27262;-35.248;149.138;2024-02-16T00:02:31;22.20;65.50
41533;DHT22;27262;-35.248;149.138;2024-02-16T00:05:02;22.20;65.50
41533;DHT22;27262;-35.248;149.138;2024-02-16T00:07:37;22.20;65.50
41533;DHT22;27262;-35.248;149.138;2024-02-16T00:10:08;22.20;65.50
41533;DHT22;27262;-35.248;149.138;2024-02-16T00:12:48;22.20;65.60
41533;DHT22;27262;-35.248;149.138;2024-02-16T00:15:18;22.20;65.60
41533;DHT22;27262;-35.248;149.138;2024-02-16T00:17:49;22.20;65.50
41533;DHT22;27262;-35.248;149.138;2024-02-16T00:20:19;22.20;65.50
41533;DHT22;27262;-35.248;149.138;2024-02-16T00:22:52;22.20;65.50
41533;DHT22;27262;-35.248;149.138;2024-02-16T00:25:25;22.20;65.50
41533;DHT22;27262;-35.248;149.138;2024-02-16T00:27:56;22.20;65.50
41533;DHT22;27262;-35.248;149.138;2024-02-16T00:30:26;22.20;65.50
41533;DHT22;27262;-35.248;149.138;2024-02-16T00:32:57;22.20;65.50
41533;DHT22;27262;-35.248;149.138;2024-02-16T00:35:27;22.20;65.40
41533;DHT22;27262;-35.248;149.138;2024-02-16T00:38:01;22.20;65.50
41533;DHT22;27262;-35.248;149.138;2024-02-16T00:40:32;22.20;65.50
41533;DHT22;27262;-35.248;149.138;2024-02-16T00:43:04;22.20;65.50
41533;DHT22;27262;-35.248;149.138;2024-02-16T00:45:56;22.20;65.50
41533;DHT22;27262;-35.248;149.138;2024-02-16T00:48:28;22.20;65.60
41533;DHT22;27262;-35.248;149.138;2024-02-16T00:51:11;22.20;65.50
41533;DHT22;27262;-35.248;149.138;2024-02-16T00:53:50;22.20;65.60
41533;DHT22;27262;-35.248;149.138;2024-02-16T00:56:37;22.20;65.60
41533;DHT22;27262;-35.248;149.138;2024-02-16T00:59:10;22.20;65.70
41533;DHT22;27262;-35.248;149.138;2024-02-16T01:01:46;22.20;65.70
41533;DHT22;27262;-35.248;149.138;2024-02-16T01:04:20;22.20;65.70
41533;DHT22;27262;-35.248;149.138;2024-02-16T01:06:56;22.20;65.80
41533;DHT22;27262;-35.248;149.138;2024-02-16T01:09:39;22.20;65.90
41533;DHT22;27262;-35.248;149.138;2024-02-16T01:12:29;22.30;66.00
41533;DHT22;27262;-35.248;149.138;2024-02-16T01:15:04;22.20;65.90
41533;DHT22;27262;-35.248;149.138;2024-02-16T01:17:35;22.20;66.00
41533;DHT22;27262;-35.248;149.138;2024-02-16T01:20:06;22.20;65.90
41533;DHT22;27262;-35.248;149.138;2024-02-16T01:22:40;22.20;66.00
41533;DHT22;27262;-35.248;149.138;2024-02-16T01:25:10;22.20;66.00
41533;DHT22;27262;-35.248;149.138;2024-02-16T01:27:41;22.30;66.10
41533;DHT22;27262;-35.248;149.138;2024-02-16T01:30:15;22.30;66.10
41533;DHT22;27262;-35.248;149.138;2024-02-16T01:32:55;22.30;66.10
41533;DHT22;27262;-35.248;149.138;2024-02-16T01:35:27;22.30;66.10
41533;DHT22;27262;-35.248;149.138;2024-02-16T01:38:01;22.30;66.10
41533;DHT22;27262;-35.248;149.138;2024-02-16T01:40:34;22.30;66.20
41533;DHT22;27262;-35.248;149.138;2024-02-16T01:43:04;22.30;66.20
41533;DHT22;27262;-35.248;149.138;2024-02-16T01:45:35;22.30;66.20
41533;DHT22;27262;-35.248;149.138;2024-02-16T01:48:05;22.30;66.20
41533;DHT22;27262;-35.248;149.138;2024-02-16T01:50:36;22.30;67.00
41533;DHT22;27262;-35.248;149.138;2024-02-16T01:53:07;22.30;66.30
41533;DHT22;27262;-35.248;149.138;2024-02-16T01:55:37;22.30;66.30
41533;DHT22;27262;-35.248;149.138;2024-02-16T01:58:08;22.30;66.30
41533;DHT22;27262;-35.248;149.138;2024-02-16T02:00:39;22.30;66.20
41533;DHT22;27262;-35.248;149.138;2024-02-16T02:03:10;22.30;66.30
41533;DHT22;27262;-35.248;149.138;2024-02-16T02:05:46;22.30;66.20
41533;DHT22;27262;-35.248;149.138;2024-02-16T02:08:29;22.40;66.10
41533;DHT22;27262;-35.248;149.138;2024-02-16T02:10:59;22.40;65.80
41533;DHT22;27262;-35.248;149.138;2024-02-16T02:13:30;22.40;66.10
41533;DHT22;27262;-35.248;149.138;2024-02-16T02:16:03;22.40;66.00
41533;DHT22;27262;-35.248;149.138;2024-02-16T02:18:34;22.40;66.00
41533;DHT22;27262;-35.248;149.138;2024-02-16T02:21:05;22.40;66.00
41533;DHT22;27262;-35.248;149.138;2024-02-16T02:23:35;22.40;66.10
41533;DHT22;27262;-35.248;149.138;2024-02-16T02:26:07;22.40;66.10
41533;DHT22;27262;-35.248;149.138;2024-02-16T02:28:37;22.40;66.10
41533;DHT22;27262;-35.248;149.138;2024-02-16T02:31:08;22.40;66.10
41533;DHT22;27262;-35.248;149.138;2024-02-16T02:33:38;22.40;66.10
41533;DHT22;27262;-35.248;149.138;2024-02-16T02:36:09;22.40;66.10
41533;DHT22;27262;-35.248;149.138;2024-02-16T02:38:40;22.40;66.00
41533;DHT22;27262;-35.248;149.138;2024-02-16T02:41:10;22.40;66.00
41533;DHT22;27262;-35.248;149.138;2024-02-16T02:43:40;22.50;66.00
41533;DHT22;27262;-35.248;149.138;2024-02-16T02:46:22;22.50;65.90
41533;DHT22;27262;-35.248;149.138;2024-02-16T02:48:53;22.50;65.90
41533;DHT22;27262;-35.248;149.138;2024-02-16T02:51:24;22.50;65.90
41533;DHT22;27262;-35.248;149.138;2024-02-16T02:53:56;22.50;65.90
41533;DHT22;27262;-35.248;149.138;2024-02-16T02:56:27;22.50;65.90
41533;DHT22;27262;-35.248;149.138;2024-02-16T02:58:57;22.50;65.90
41533;DHT22;27262;-35.248;149.138;2024-02-16T03:01:27;22.50;65.90
41533;DHT22;27262;-35.248;149.138;2024-02-16T03:03:57;22.50;65.90
41533;DHT22;27262;-35.248;149.138;2024-02-16T03:06:29;22.50;65.80
41533;DHT22;27262;-35.248;149.138;2024-02-16T03:09:00;22.50;65.80
41533;DHT22;27262;-35.248;149.138;2024-02-16T03:11:30;22.50;65.80
41533;DHT22;27262;-35.248;149.138;2024-02-16T03:14:00;22.60;65.80
41533;DHT22;27262;-35.248;149.138;2024-02-16T03:16:31;22.50;65.80
41533;DHT22;27262;-35.248;149.138;2024-02-16T03:19:03;22.60;65.80
41533;DHT22;27262;-35.248;149.138;2024-02-16T03:21:35;22.60;65.80
41533;DHT22;27262;-35.248;149.138;2024-02-16T03:24:06;22.60;65.80
41533;DHT22;27262;-35.248;149.138;2024-02-16T03:26:36;22.60;65.80
41533;DHT22;27262;-35.248;149.138;2024-02-16T03:29:07;22.60;65.80
41533;DHT22;27262;-35.248;149.138;2024-02-16T03:31:37;22.60;65.80
41533;DHT22;27262;-35.248;149.138;2024-02-16T03:34:08;22.60;66.50
41533;DHT22;27262;-35.248;149.138;2024-02-16T03:36:38;22.60;65.80
41533;DHT22;27262;-35.248;149.138;2024-02-16T03:39:09;22.60;65.70
41533;DHT22;27262;-35.248;149.138;2024-02-16T03:41:39;22.60;65.70
41533;DHT22;27262;-35.248;149.138;2024-02-16T03:44:10;22.60;65.70
41533;DHT22;27262;-35.248;149.138;2024-02-16T03:46:40;22.60;65.70
41533;DHT22;27262;-35.248;149.138;2024-02-16T03:49:10;22.70;65.80
41533;DHT22;27262;-35.248;149.138;2024-02-16T03:51:41;22.70;65.70
41533;DHT22;27262;-35.248;149.138;2024-02-16T03:54:11;22.70;65.70
41533;DHT22;27262;-35.248;149.138;2024-02-16T03:56:42;22.70;65.70
41533;DHT22;27262;-35.248;149.138;2024-02-16T03:59:14;22.70;65.70
41533;DHT22;27262;-35.248;149.138;2024-02-16T04:01:45;22.70;65.70
41533;DHT22;27262;-35.248;149.138;2024-02-16T04:04:16;22.70;65.70
41533;DHT22;27262;-35.248;149.138;2024-02-16T04:06:46;22.70;65.70
41533;DHT22;27262;-35.248;149.138;2024-02-16T04:09:17;22.70;65.60
41533;DHT22;27262;-35.248;149.138;2024-02-16T04:11:47;22.70;65.70
41533;DHT22;27262;-35.248;149.138;2024-02-16T04:14:17;22.70;65.70
41533;DHT22;27262;-35.248;149.138;2024-02-16T04:16:48;22.70;65.60
41533;DHT22;27262;-35.248;149.138;2024-02-16T04:19:18;22.70;65.60
41533;DHT22;27262;-35.248;149.138;2024-02-16T04:21:49;22.80;65.60
41533;DHT22;27262;-35.248;149.138;2024-02-16T04:24:19;22.80;65.60
41533;DHT22;27262;-35.248;149.138;2024-02-16T04:26:50;22.80;65.70
41533;DHT22;27262;-35.248;149.138;2024-02-16T04:29:20;22.80;65.60
41533;DHT22;27262;-35.248;149.138;2024-02-16T04:31:51;22.80;65.60
41533;DHT22;27262;-35.248;149.138;2024-02-16T04:34:21;22.80;65.60
41533;DHT22;27262;-35.248;149.138;2024-02-16T04:36:51;22.80;65.60
41533;DHT22;27262;-35.248;149.138;2024-02-16T04:39:22;22.80;65.60
41533;DHT22;27262;-35.248;149.138;2024-02-16T04:41:52;22.90;65.60
41533;DHT22;27262;-35.248;149.138;2024-02-16T04:44:23;22.90;65.60
41533;DHT22;27262;-35.248;149.138;2024-02-16T04:46:53;22.90;65.60
41533;DHT22;27262;-35.248;149.138;2024-02-16T04:49:24;22.90;65.60
41533;DHT22;27262;-35.248;149.138;2024-02-16T04:51:54;22.90;65.70
41533;DHT22;27262;-35.248;149.138;2024-02-16T04:54:25;22.90;65.70
41533;DHT22;27262;-35.248;149.138;2024-02-16T04:56:55;22.90;65.70
41533;DHT22;27262;-35.248;149.138;2024-02-16T04:59:26;23.00;65.80
41533;DHT22;27262;-35.248;149.138;2024-02-16T05:01:57;23.00;65.80
41533;DHT22;27262;-35.248;149.138;2024-02-16T05:04:27;23.00;65.80
41533;DHT22;27262;-35.248;149.138;2024-02-16T05:06:58;23.00;65.90
41533;DHT22;27262;-35.248;149.138;2024-02-16T05:09:28;23.00;65.90
41533;DHT22;27262;-35.248;149.138;2024-02-16T05:11:59;23.00;65.90
41533;DHT22;27262;-35.248;149.138;2024-02-16T05:14:29;23.00;66.00
41533;DHT22;27262;-35.248;149.138;2024-02-16T05:16:59;23.00;66.00
41533;DHT22;27262;-35.248;149.138;2024-02-16T05:19:33;23.00;66.00
41533;DHT22;27262;-35.248;149.138;2024-02-16T05:22:05;23.10;66.20
41533;DHT22;27262;-35.248;149.138;2024-02-16T05:24:36;23.10;66.20
41533;DHT22;27262;-35.248;149.138;2024-02-16T05:27:06;23.10;66.20
41533;DHT22;27262;-35.248;149.138;2024-02-16T05:29:37;23.10;66.30
41533;DHT22;27262;-35.248;149.138;2024-02-16T05:32:07;23.10;66.30
41533;DHT22;27262;-35.248;149.138;2024-02-16T05:34:40;23.10;66.30
41533;DHT22;27262;-35.248;149.138;2024-02-16T05:37:11;23.10;66.30
41533;DHT22;27262;-35.248;149.138;2024-02-16T05:39:44;23.20;66.40
41533;DHT22;27262;-35.248;149.138;2024-02-16T05:42:29;23.20;66.50
41533;DHT22;27262;-35.248;149.138;2024-02-16T05:44:59;23.20;66.60
41533;DHT22;27262;-35.248;149.138;2024-02-16T05:47:29;23.20;66.60
41533;DHT22;27262;-35.248;149.138;2024-02-16T05:50:00;23.20;66.60
41533;DHT22;27262;-35.248;149.138;2024-02-16T05:52:36;23.30;66.80
41533;DHT22;27262;-35.248;149.138;2024-02-16T05:55:08;23.30;66.80
41533;DHT22;27262;-35.248;149.138;2024-02-16T05:57:38;23.30;66.90
41533;DHT22;27262;-35.248;149.138;2024-02-16T06:00:09;23.30;66.80
41533;DHT22;27262;-35.248;149.138;2024-02-16T06:02:40;23.30;66.90
41533;DHT22;27262;-35.248;149.138;2024-02-16T06:05:10;23.40;66.90
41533;DHT22;27262;-35.248;149.138;2024-02-16T06:07:41;23.40;66.90
41533;DHT22;27262;-35.248;149.138;2024-02-16T06:10:11;23.40;66.90
41533;DHT22;27262;-35.248;149.138;2024-02-16T06:12:41;23.40;66.90
41533;DHT22;27262;-35.248;149.138;2024-02-16T06:15:12;23.40;66.90
41533;DHT22;27262;-35.248;149.138;2024-02-16T06:17:44;23.40;66.90
41533;DHT22;27262;-35.248;149.138;2024-02-16T06:20:15;23.40;66.90
41533;DHT22;27262;-35.248;149.138;2024-02-16T06:22:48;23.50;67.00
41533;DHT22;27262;-35.248;149.138;2024-02-16T06:25:19;23.50;66.90
41533;DHT22;27262;-35.248;149.138;2024-02-16T06:27:49;23.50;66.90
41533;DHT22;27262;-35.248;149.138;2024-02-16T06:30:20;23.50;66.90
41533;DHT22;27262;-35.248;149.138;2024-02-16T06:32:51;23.50;67.00
41533;DHT22;27262;-35.248;149.138;2024-02-16T06:35:24;23.50;67.00
41533;DHT22;27262;-35.248;149.138;2024-02-16T06:37:55;23.60;67.10
41533;DHT22;27262;-35.248;149.138;2024-02-16T06:40:26;23.60;67.10
41533;DHT22;27262;-35.248;149.138;2024-02-16T06:42:56;23.60;67.10
41533;DHT22;27262;-35.248;149.138;2024-02-16T06:45:28;23.60;67.20
41533;DHT22;27262;-35.248;149.138;2024-02-16T06:47:59;23.60;67.40
41533;DHT22;27262;-35.248;149.138;2024-02-16T06:50:30;23.60;67.60
41533;DHT22;27262;-35.248;149.138;2024-02-16T06:53:01;23.60;67.70
41533;DHT22;27262;-35.248;149.138;2024-02-16T06:55:31;23.70;67.80
41533;DHT22;27262;-35.248;149.138;2024-02-16T06:58:02;23.70;67.80
41533;DHT22;27262;-35.248;149.138;2024-02-16T07:00:32;23.70;67.70
41533;DHT22;27262;-35.248;149.138;2024-02-16T07:03:05;23.70;67.70
41533;DHT22;27262;-35.248;149.138;2024-02-16T07:05:35;23.70;67.70
41533;DHT22;27262;-35.248;149.138;2024-02-16T07:08:06;23.80;67.80
41533;DHT22;27262;-35.248;149.138;2024-02-16T07:10:37;23.80;68.00
41533;DHT22;27262;-35.248;149.138;2024-02-16T07:13:10;23.80;68.00
41533;DHT22;27262;-35.248;149.138;2024-02-16T07:15:40;23.80;68.00
41533;DHT22;27262;-35.248;149.138;2024-02-16T07:18:12;23.80;68.00
41533;DHT22;27262;-35.248;149.138;2024-02-16T07:20:43;23.80;68.10
41533;DHT22;27262;-35.248;149.138;2024-02-16T07:23:17;23.80;68.10
41533;DHT22;27262;-35.248;149.138;2024-02-16T07:25:47;23.80;68.10
41533;DHT22;27262;-35.248;149.138;2024-02-16T07:28:21;23.80;68.00
41533;DHT22;27262;-35.248;149.138;2024-02-16T07:30:52;23.90;68.10
41533;DHT22;27262;-35.248;149.138;2024-02-16T07:33:24;23.90;68.00
41533;DHT22;27262;-35.248;149.138;2024-02-16T07:35:59;23.90;68.00
41533;DHT22;27262;-35.248;149.138;2024-02-16T07:38:31;23.90;68.00
41533;DHT22;27262;-35.248;149.138;2024-02-16T07:41:01;23.90;67.90
41533;DHT22;27262;-35.248;149.138;2024-02-16T07:43:38;23.90;67.80
41533;DHT22;27262;-35.248;149.138;2024-02-16T07:46:13;23.90;67.80
41533;DHT22;27262;-35.248;149.138;2024-02-16T07:48:43;23.90;67.70
41533;DHT22;27262;-35.248;149.138;2024-02-16T07:51:14;23.90;67.80
41533;DHT22;27262;-35.248;149.138;2024-02-16T07:53:44;24.00;67.80
41533;DHT22;27262;-35.248;149.138;2024-02-16T07:56:15;23.90;67.70
41533;DHT22;27262;-35.248;149.138;2024-02-16T07:58:47;24.00;67.80
41533;DHT22;27262;-35.248;149.138;2024-02-16T08:01:17;23.90;67.70
41533;DHT22;27262;-35.248;149.138;2024-02-16T08:03:48;24.00;67.90
41533;DHT22;27262;-35.248;149.138;2024-02-16T08:06:18;24.00;68.00
41533;DHT22;27262;-35.248;149.138;2024-02-16T08:08:50;24.00;68.00
41533;DHT22;27262;-35.248;149.138;2024-02-16T08:11:21;24.00;68.00
41533;DHT22;27262;-35.248;149.138;2024-02-16T08:13:52;24.00;68.10
41533;DHT22;27262;-35.248;149.138;2024-02-16T08:16:22;24.00;68.10
41533;DHT22;27262;-35.248;149.138;2024-02-16T08:18:52;24.00;68.20
41533;DHT22;27262;-35.248;149.138;2024-02-16T08:21:22;24.00;68.20
41533;DHT22;27262;-35.248;149.138;2024-02-16T08:23:53;24.00;68.30
41533;DHT22;27262;-35.248;149.138;2024-02-16T08:26:24;24.10;68.30
41533;DHT22;27262;-35.248;149.138;2024-02-16T08:28:55;24.10;68.40
41533;DHT22;27262;-35.248;149.138;2024-02-16T08:31:26;24.10;68.30
41533;DHT22;27262;-35.248;149.138;2024-02-16T08:33:56;24.10;68.40
41533;DHT22;27262;-35.248;149.138;2024-02-16T08:36:28;24.10;68.30
41533;DHT22;27262;-35.248;149.138;2024-02-16T08:39:00;24.10;68.30
41533;DHT22;27262;-35.248;149.138;2024-02-16T08:41:31;24.10;68.30
41533;DHT22;27262;-35.248;149.138;2024-02-16T08:44:01;24.10;69.00
41533;DHT22;27262;-35.248;149.138;2024-02-16T08:46:31;24.10;68.20
41533;DHT22;27262;-35.248;149.138;2024-02-16T08:49:02;24.10;68.20
41533;DHT22;27262;-35.248;149.138;2024-02-16T08:51:33;24.10;68.20
41533;DHT22;27262;-35.248;149.138;2024-02-16T08:54:03;24.10;68.20
41533;DHT22;27262;-35.248;149.138;2024-02-16T08:56:37;24.10;68.90
41533;DHT22;27262;-35.248;149.138;2024-02-16T08:59:08;24.10;68.20
41533;DHT22;27262;-35.248;149.138;2024-02-16T09:01:40;24.20;68.30
41533;DHT22;27262;-35.248;149.138;2024-02-16T09:04:10;24.10;68.20
41533;DHT22;27262;-35.248;149.138;2024-02-16T09:06:41;24.10;68.10
41533;DHT22;27262;-35.248;149.138;2024-02-16T09:09:12;24.10;68.10
41533;DHT22;27262;-35.248;149.138;2024-02-16T09:11:42;24.20;68.10
41533;DHT22;27262;-35.248;149.138;2024-02-16T09:14:13;24.10;68.00
41533;DHT22;27262;-35.248;149.138;2024-02-16T09:16:43;24.20;68.00
41533;DHT22;27262;-35.248;149.138;2024-02-16T09:19:13;24.20;68.00
41533;DHT22;27262;-35.248;149.138;2024-02-16T09:21:44;24.20;68.00
41533;DHT22;27262;-35.248;149.138;2024-02-16T09:24:15;24.20;67.90
41533;DHT22;27262;-35.248;149.138;2024-02-16T09:26:47;24.20;67.90
41533;DHT22;27262;-35.248;149.138;2024-02-16T09:29:18;24.20;67.80
41533;DHT22;27262;-35.248;149.138;2024-02-16T09:31:50;24.20;67.80
41533;DHT22;27262;-35.248;149.138;2024-02-16T09:34:21;24.20;67.80
41533;DHT22;27262;-35.248;149.138;2024-02-16T09:36:51;24.20;67.80
41533;DHT22;27262;-35.248;149.138;2024-02-16T09:39:22;24.20;67.70
41533;DHT22;27262;-35.248;149.138;2024-02-16T09:41:53;24.20;67.70
41533;DHT22;27262;-35.248;149.138;2024-02-16T09:44:24;24.20;67.70
41533;DHT22;27262;-35.248;149.138;2024-02-16T09:46:55;24.20;67.60
41533;DHT22;27262;-35.248;149.138;2024-02-16T09:49:27;24.20;67.70
41533;DHT22;27262;-35.248;149.138;2024-02-16T09:52:10;24.20;67.60
41533;DHT22;27262;-35.248;149.138;2024-02-16T09:54:44;24.20;67.60
41533;DHT22;27262;-35.248;149.138;2024-02-16T09:57:17;24.20;67.70
41533;DHT22;27262;-35.248;149.138;2024-02-16T09:59:47;24.20;67.60
41533;DHT22;27262;-35.248;149.138;2024-02-16T10:02:18;24.20;67.60
41533;DHT22;27262;-35.248;149.138;2024-02-16T10:04:48;24.20;67.50
41533;DHT22;27262;-35.248;149.138;2024-02-16T10:07:30;24.20;67.50
41533;DHT22;27262;-35.248;149.138;2024-02-16T10:10:00;24.20;67.20
41533;DHT22;27262;-35.248;149.138;2024-02-16T10:12:46;24.20;67.00
41533;DHT22;27262;-35.248;149.138;2024-02-16T10:15:22;24.20;66.50
41533;DHT22;27262;-35.248;149.138;2024-02-16T10:18:02;24.10;65.90
41533;DHT22;27262;-35.248;149.138;2024-02-16T10:20:35;24.10;65.70
41533;DHT22;27262;-35.248;149.138;2024-02-16T10:23:09;24.10;65.70
41533;DHT22;27262;-35.248;149.138;2024-02-16T10:25:40;24.10;65.70
41533;DHT22;27262;-35.248;149.138;2024-02-16T10:28:12;24.10;65.60
41533;DHT22;27262;-35.248;149.138;2024-02-16T10:30:44;24.10;65.30
41533;DHT22;27262;-35.248;149.138;2024-02-16T10:33:15;24.00;65.00
41533;DHT22;27262;-35.248;149.138;2024-02-16T10:35:47;24.00;64.60
41533;DHT22;27262;-35.248;149.138;2024-02-16T10:38:28;24.00;64.40
41533;DHT22;27262;-35.248;149.138;2024-02-16T10:41:00;24.00;64.00
41533;DHT22;27262;-35.248;149.138;2024-02-16T10:43:31;24.00;64.80
41533;DHT22;27262;-35.248;149.138;2024-02-16T10:46:16;23.90;64.10
41533;DHT22;27262;-35.248;149.138;2024-02-16T10:48:47;23.90;64.20
41533;DHT22;27262;-35.248;149.138;2024-02-16T10:51:34;23.90;64.20
41533;DHT22;27262;-35.248;149.138;2024-02-16T10:54:06;23.90;64.20
41533;DHT22;27262;-35.248;149.138;2024-02-16T10:56:46;23.90;64.40
41533;DHT22;27262;-35.248;149.138;2024-02-16T10:59:21;23.90;64.60
41533;DHT22;27262;-35.248;149.138;2024-02-16T11:02:01;23.90;64.60
41533;DHT22;27262;-35.248;149.138;2024-02-16T11:04:56;23.90;64.30
41533;DHT22;27262;-35.248;149.138;2024-02-16T11:07:27;23.90;64.20
41533;DHT22;27262;-35.248;149.138;2024-02-16T11:10:03;23.90;64.20
41533;DHT22;27262;-35.248;149.138;2024-02-16T11:12:34;23.90;64.00
41533;DHT22;27262;-35.248;149.138;2024-02-16T11:15:08;23.90;63.80
41533;DHT22;27262;-35.248;149.138;2024-02-16T11:17:49;23.90;63.50
41533;DHT22;27262;-35.248;149.138;2024-02-16T11:20:25;23.90;63.80
41533;DHT22;27262;-35.248;149.138;2024-02-16T11:23:11;23.80;63.80
41533;DHT22;27262;-35.248;149.138;2024-02-16T11:25:51;23.90;63.80
41533;DHT22;27262;-35.248;149.138;2024-02-16T11:28:22;23.90;64.00
41533;DHT22;27262;-35.248;149.138;2024-02-16T11:31:09;23.80;64.00
41533;DHT22;27262;-35.248;149.138;2024-02-16T11:33:44;23.80;64.00
41533;DHT22;27262;-35.248;149.138;2024-02-16T11:36:20;23.80;63.80
41533;DHT22;27262;-35.248;149.138;2024-02-16T11:38:56;23.80;63.70
41533;DHT22;27262;-35.248;149.138;2024-02-16T11:41:46;23.80;63.40
41533;DHT22;27262;-35.248;149.138;2024-02-16T11:44:18;23.80;63.20
41533;DHT22;27262;-35.248;149.138;2024-02-16T11:46:54;23.80;63.10
41533;DHT22;27262;-35.248;149.138;2024-02-16T11:49:26;23.80;62.90
41533;DHT22;27262;-35.248;149.138;2024-02-16T11:52:04;23.70;63.00
41533;DHT22;27262;-35.248;149.138;2024-02-16T11:54:35;23.70;63.10
41533;DHT22;27262;-35.248;149.138;2024-02-16T11:57:18;23.80;63.20
41533;DHT22;27262;-35.248;149.138;2024-02-16T11:59:50;23.70;63.20
41533;DHT22;27262;-35.248;149.138;2024-02-16T12:02:23;23.70;63.30
41533;DHT22;27262;-35.248;149.138;2024-02-16T12:05:04;23.70;63.20
41533;DHT22;27262;-35.248;149.138;2024-02-16T12:07:38;23.70;63.20
41533;DHT22;27262;-35.248;149.138;2024-02-16T12:10:16;23.70;63.10
41533;DHT22;27262;-35.248;149.138;2024-02-16T12:12:54;23.70;63.00
41533;DHT22;27262;-35.248;149.138;2024-02-16T12:15:38;23.60;62.70
41533;DHT22;27262;-35.248;149.138;2024-02-16T12:18:27;23.60;62.50
41533;DHT22;27262;-35.248;149.138;2024-02-16T12:21:06;23.70;62.30
41533;DHT22;27262;-35.248;149.138;2024-02-16T12:23:48;23.60;62.20
41533;DHT22;27262;-35.248;149.138;2024-02-16T12:26:23;23.60;62.20
41533;DHT22;27262;-35.248;149.138;2024-02-16T12:28:59;23.60;62.00
41533;DHT22;27262;-35.248;149.138;2024-02-16T12:31:46;23.60;62.00
41533;DHT22;27262;-35.248;149.138;2024-02-16T12:34:22;23.60;61.80
41533;DHT22;27262;-35.248;149.138;2024-02-16T12:37:07;23.60;61.90
41533;DHT22;27262;-35.248;149.138;2024-02-16T12:39:41;23.50;62.00
41533;DHT22;27262;-35.248;149.138;2024-02-16T12:42:12;23.50;62.10
41533;DHT22;27262;-35.248;149.138;2024-02-16T12:44:44;23.60;62.30
41533;DHT22;27262;-35.248;149.138;2024-02-16T12:47:15;23.50;62.20
41533;DHT22;27262;-35.248;149.138;2024-02-16T12:49:57;23.50;62.20
41533;DHT22;27262;-35.248;149.138;2024-02-16T12:52:36;23.50;62.10
41533;DHT22;27262;-35.248;149.138;2024-02-16T12:55:21;23.50;62.20
41533;DHT22;27262;-35.248;149.138;2024-02-16T12:57:55;23.50;62.10
41533;DHT22;27262;-35.248;149.138;2024-02-16T13:00:27;23.50;62.00
41533;DHT22;27262;-35.248;149.138;2024-02-16T13:03:00;23.50;61.80
41533;DHT22;27262;-35.248;149.138;2024-02-16T13:05:32;23.40;61.70
41533;DHT22;27262;-35.248;149.138;2024-02-16T13:08:09;23.40;61.90
41533;DHT22;27262;-35.248;149.138;2024-02-16T13:10:50;23.50;62.00
41533;DHT22;27262;-35.248;149.138;2024-02-16T13:13:20;23.40;62.00
41533;DHT22;27262;-35.248;149.138;2024-02-16T13:15:51;23.40;62.10
41533;DHT22;27262;-35.248;149.138;2024-02-16T13:18:21;23.40;62.10
41533;DHT22;27262;-35.248;149.138;2024-02-16T13:20:55;23.40;62.00
41533;DHT22;27262;-35.248;149.138;2024-02-16T13:23:25;23.40;62.00
41533;DHT22;27262;-35.248;149.138;2024-02-16T13:26:04;23.40;61.90
41533;DHT22;27262;-35.248;149.138;2024-02-16T13:28:35;23.40;61.90
41533;DHT22;27262;-35.248;149.138;2024-02-16T13:31:05;23.40;61.80
41533;DHT22;27262;-35.248;149.138;2024-02-16T13:33:36;23.40;61.60
41533;DHT22;27262;-35.248;149.138;2024-02-16T13:36:07;23.40;61.40
41533;DHT22;27262;-35.248;149.138;2024-02-16T13:38:37;23.40;61.50
41533;DHT22;27262;-35.248;149.138;2024-02-16T13:41:25;23.40;61.80
41533;DHT22;27262;-35.248;149.138;2024-02-16T13:44:11;23.30;62.10
41533;DHT22;27262;-35.248;149.138;2024-02-16T13:46:58;23.30;62.30
41533;DHT22;27262;-35.248;149.138;2024-02-16T13:49:44;23.30;62.60
41533;DHT22;27262;-35.248;149.138;2024-02-16T13:52:30;23.30;62.70
41533;DHT22;27262;-35.248;149.138;2024-02-16T13:55:04;23.30;62.90
41533;DHT22;27262;-35.248;149.138;2024-02-16T13:57:36;23.30;63.10
41533;DHT22;27262;-35.248;149.138;2024-02-16T14:00:08;23.30;63.20
41533;DHT22;27262;-35.248;149.138;2024-02-16T14:02:39;23.30;63.40
41533;DHT22;27262;-35.248;149.138;2024-02-16T14:05:09;23.30;63.60
41533;DHT22;27262;-35.248;149.138;2024-02-16T14:07:41;23.30;63.70
41533;DHT22;27262;-35.248;149.138;2024-02-16T14:10:24;23.30;63.90
41533;DHT22;27262;-35.248;149.138;2024-02-16T14:12:55;23.30;64.00
41533;DHT22;27262;-35.248;149.138;2024-02-16T14:15:25;23.30;64.20
41533;DHT22;27262;-35.248;149.138;2024-02-16T14:17:59;23.30;64.20
41533;DHT22;27262;-35.248;149.138;2024-02-16T14:20:38;23.30;64.30
41533;DHT22;27262;-35.248;149.138;2024-02-16T14:23:09;23.30;64.50
41533;DHT22;27262;-35.248;149.138;2024-02-16T14:25:39;23.30;64.50
41533;DHT22;27262;-35.248;149.138;2024-02-16T14:28:10;23.30;64.60
41533;DHT22;27262;-35.248;149.138;2024-02-16T14:30:40;23.30;64.70
41533;DHT22;27262;-35.248;149.138;2024-02-16T14:33:11;23.30;64.70
41533;DHT22;27262;-35.248;149.138;2024-02-16T14:35:42;23.30;64.70
41533;DHT22;27262;-35.248;149.138;2024-02-16T14:38:13;23.30;64.70
41533;DHT22;27262;-35.248;149.138;2024-02-16T14:40:53;23.30;64.80
41533;DHT22;27262;-35.248;149.138;2024-02-16T14:43:23;23.30;65.00
41533;DHT22;27262;-35.248;149.138;2024-02-16T14:45:54;23.30;65.00
41533;DHT22;27262;-35.248;149.138;2024-02-16T14:48:24;23.30;65.10
41533;DHT22;27262;-35.248;149.138;2024-02-16T14:50:55;23.30;65.10
41533;DHT22;27262;-35.248;149.138;2024-02-16T14:53:25;23.30;65.20
41533;DHT22;27262;-35.248;149.138;2024-02-16T14:55:56;23.30;65.20
41533;DHT22;27262;-35.248;149.138;2024-02-16T14:58:26;23.30;65.30
41533;DHT22;27262;-35.248;149.138;2024-02-16T15:00:56;23.30;65.40
41533;DHT22;27262;-35.248;149.138;2024-02-16T15:03:27;23.30;65.20
41533;DHT22;27262;-35.248;149.138;2024-02-16T15:06:00;23.30;65.20
41533;DHT22;27262;-35.248;149.138;2024-02-16T15:08:30;23.30;65.30
41533;DHT22;27262;-35.248;149.138;2024-02-16T15:11:00;23.30;65.30
41533;DHT22;27262;-35.248;149.138;2024-02-16T15:13:31;23.30;65.40
41533;DHT22;27262;-35.248;149.138;2024-02-16T15:16:01;23.30;65.50
41533;DHT22;27262;-35.248;149.138;2024-02-16T15:18:31;23.30;65.50
41533;DHT22;27262;-35.248;149.138;2024-02-16T15:21:02;23.30;65.50
41533;DHT22;27262;-35.248;149.138;2024-02-16T15:23:32;23.30;65.50